createdAt,value
2023-04-12T00:01:09.449Z,99463.94
2023-04-12T00:03:41.734Z,99467.04
2023-04-12T00:06:17.340Z,99468.85
2023-04-12T00:08:50.610Z,99469.85
2023-04-12T00:11:22.759Z,99469.23
2023-04-12T00:13:55.064Z,99469.19
2023-04-12T00:16:27.386Z,99467.90
2023-04-12T00:19:01.882Z,99466.98
2023-04-12T00:21:34.083Z,99466.71
2023-04-12T00:24:06.677Z,99472.05
2023-04-12T00:26:39.062Z,99475.41
2023-04-12T00:29:11.198Z,99471.13
2023-04-12T00:31:43.555Z,99470.29
2023-04-12T00:34:15.986Z,99474.27
2023-04-12T00:36:48.250Z,99471.83
2023-04-12T00:39:20.351Z,99467.05
2023-04-12T00:41:52.811Z,99467.03
2023-04-12T00:44:25.163Z,99465.13
2023-04-12T00:46:58.586Z,99465.55
2023-04-12T00:49:32.193Z,99460.77
2023-04-12T00:52:08.798Z,99456.70
2023-04-12T00:54:43.141Z,99458.17
2023-04-12T00:57:16.624Z,99457.94
2023-04-12T00:59:48.804Z,99457.87
2023-04-12T01:02:21.128Z,99462.11
2023-04-12T01:04:54.151Z,99467.95
2023-04-12T01:07:40.292Z,99472.09
2023-04-12T01:10:22.054Z,99472.84
2023-04-12T01:13:02.440Z,99472.23
2023-04-12T01:15:38.510Z,99467.81
2023-04-12T01:18:14.977Z,99471.75
2023-04-12T01:20:54.685Z,99471.68
2023-04-12T01:23:44.818Z,99469.73
2023-04-12T01:26:34.559Z,99472.11
2023-04-12T01:29:13.432Z,99477.16
2023-04-12T01:31:53.316Z,99470.63
2023-04-12T01:34:30.405Z,99470.42
2023-04-12T01:37:03.150Z,99472.13
2023-04-12T01:39:36.735Z,99469.80
2023-04-12T01:42:08.939Z,99471.41
2023-04-12T01:44:41.063Z,99471.70
2023-04-12T01:47:13.625Z,99470.95
2023-04-12T01:49:55.850Z,99467.26
2023-04-12T01:52:32.354Z,99464.64
2023-04-12T01:55:07.413Z,99464.71
2023-04-12T01:57:42.052Z,99464.81
2023-04-12T02:00:18.181Z,99464.77
2023-04-12T02:02:50.510Z,99455.30
2023-04-12T02:05:23.506Z,99450.42
2023-04-12T02:07:59.374Z,99453.52
2023-04-12T02:10:36.764Z,99450.52
2023-04-12T02:13:09.012Z,99456.25
2023-04-12T02:15:41.692Z,99453.40
2023-04-12T02:18:17.061Z,99451.36
2023-04-12T02:20:50.184Z,99457.48
2023-04-12T02:23:22.341Z,99461.45
2023-04-12T02:25:54.543Z,99463.40
2023-04-12T02:28:26.666Z,99460.08
2023-04-12T02:30:58.956Z,99462.50
2023-04-12T02:33:31.654Z,99459.42
2023-04-12T02:36:05.200Z,99456.07
2023-04-12T02:38:37.269Z,99451.75
2023-04-12T02:41:18.050Z,99445.73
2023-04-12T02:43:50.407Z,99442.63
2023-04-12T02:46:27.228Z,99444.60
2023-04-12T02:49:03.560Z,99446.70
2023-04-12T02:51:38.695Z,99446.23
2023-04-12T02:54:12.016Z,99447.21
2023-04-12T02:56:56.320Z,99445.30
2023-04-12T02:59:39.140Z,99441.14
2023-04-12T03:02:21.464Z,99437.02
2023-04-12T03:04:54.981Z,99435.20
2023-04-12T03:07:31.934Z,99438.05
2023-04-12T03:10:06.289Z,99439.52
2023-04-12T03:12:39.288Z,99437.54
2023-04-12T03:15:20.291Z,99435.77
2023-04-12T03:17:53.678Z,99434.83
2023-04-12T03:20:28.476Z,99429.36
2023-04-12T03:23:09.285Z,99431.91
2023-04-12T03:25:44.952Z,99430.99
2023-04-12T03:28:49.539Z,99429.15
2023-04-12T03:31:21.711Z,99425.82
2023-04-12T03:33:55.652Z,99422.23
2023-04-12T03:36:30.348Z,99425.72
2023-04-12T03:39:14.152Z,99429.34
2023-04-12T03:41:46.780Z,99428.35
2023-04-12T03:44:19.382Z,99431.61
2023-04-12T03:46:52.167Z,99433.23
2023-04-12T03:49:24.695Z,99438.88
2023-04-12T03:51:58.698Z,99441.09
2023-04-12T03:54:30.981Z,99443.54
2023-04-12T03:57:04.480Z,99444.14
2023-04-12T03:59:43.597Z,99447.98
2023-04-12T04:02:16.059Z,99452.86
2023-04-12T04:04:52.116Z,99455.14
2023-04-12T04:07:31.912Z,99456.72
2023-04-12T04:10:06.638Z,99459.32
2023-04-12T04:12:40.863Z,99460.15
2023-04-12T04:15:15.732Z,99458.83
2023-04-12T04:17:49.525Z,99457.92
2023-04-12T04:20:22.980Z,99454.45
2023-04-12T04:22:55.959Z,99458.47
2023-04-12T04:25:31.404Z,99457.18
2023-04-12T04:28:08.845Z,99455.00
2023-04-12T04:30:41.026Z,99455.10
2023-04-12T04:33:16.565Z,99466.81
2023-04-12T04:35:49.264Z,99473.04
2023-04-12T04:38:32.808Z,99479.34
2023-04-12T04:41:12.921Z,99481.40
2023-04-12T04:44:04.787Z,99479.34
2023-04-12T04:46:38.281Z,99481.83
2023-04-12T04:49:10.822Z,99478.90
2023-04-12T04:51:42.967Z,99483.20
2023-04-12T04:54:16.822Z,99480.83
2023-04-12T04:56:49.464Z,99480.59
2023-04-12T04:59:23.931Z,99484.44
2023-04-12T05:01:57.086Z,99489.75
2023-04-12T05:04:29.332Z,99489.20
2023-04-12T05:07:01.701Z,99488.16
2023-04-12T05:09:33.939Z,99484.66
2023-04-12T05:12:06.279Z,99478.36
2023-04-12T05:14:47.329Z,99472.37
2023-04-12T05:17:23.790Z,99475.09
2023-04-12T05:19:56.471Z,99478.05
2023-04-12T05:22:29.689Z,99476.30
2023-04-12T05:25:03.292Z,99479.94
2023-04-12T05:27:37.436Z,99485.30
2023-04-12T05:30:14.194Z,99486.98
2023-04-12T05:32:48.007Z,99489.58
2023-04-12T05:35:21.896Z,99488.23
2023-04-12T05:37:55.120Z,99488.15
2023-04-12T05:40:27.314Z,99486.30
2023-04-12T05:42:59.722Z,99486.64
2023-04-12T05:45:32.570Z,99486.08
2023-04-12T05:48:05.159Z,99483.85
2023-04-12T05:50:38.145Z,99481.13
2023-04-12T05:53:10.698Z,99481.55
2023-04-12T05:55:42.872Z,99483.08
2023-04-12T05:58:15.175Z,99493.54
2023-04-12T06:00:47.439Z,99492.59
2023-04-12T06:03:19.937Z,99494.09
2023-04-12T06:05:53.082Z,99495.04
2023-04-12T06:08:25.281Z,99490.77
2023-04-12T06:10:57.446Z,99484.65
2023-04-12T06:13:31.752Z,99480.38
2023-04-12T06:16:03.884Z,99478.00
2023-04-12T06:18:36.212Z,99473.20
2023-04-12T06:21:08.926Z,99470.70
2023-04-12T06:23:41.162Z,99465.31
2023-04-12T06:26:14.253Z,99465.27
2023-04-12T06:28:46.997Z,99466.42
2023-04-12T06:31:19.650Z,99467.96
2023-04-12T06:33:52.011Z,99467.90
2023-04-12T06:36:24.362Z,99468.17
2023-04-12T06:38:56.810Z,99473.23
2023-04-12T06:41:29.401Z,99474.54
2023-04-12T06:44:05.684Z,99474.58
2023-04-12T06:46:37.909Z,99471.39
2023-04-12T06:49:10.778Z,99463.86
2023-04-12T06:51:42.848Z,99470.70
2023-04-12T06:54:15.133Z,99469.45
2023-04-12T06:56:47.245Z,99466.72
2023-04-12T06:59:19.414Z,99465.98
2023-04-12T07:01:52.028Z,99469.71
2023-04-12T07:04:24.406Z,99467.30
2023-04-12T07:06:56.479Z,99467.18
2023-04-12T07:09:28.678Z,99463.09
2023-04-12T07:12:01.194Z,99465.05
2023-04-12T07:14:33.279Z,99466.05
2023-04-12T07:17:05.918Z,99466.86
2023-04-12T07:19:39.484Z,99464.95
2023-04-12T07:22:13.586Z,99468.11
2023-04-12T07:24:44.884Z,99469.27
2023-04-12T07:27:17.124Z,99473.85
2023-04-12T07:29:49.367Z,99478.24
2023-04-12T07:32:21.696Z,99481.91
2023-04-12T07:34:53.985Z,99484.30
2023-04-12T07:37:26.244Z,99483.38
2023-04-12T07:39:58.422Z,99482.00
2023-04-12T07:42:30.555Z,99479.40
2023-04-12T07:45:02.682Z,99479.05
2023-04-12T07:47:34.867Z,99474.05
2023-04-12T07:50:08.706Z,99470.55
2023-04-12T07:52:41.514Z,99469.34
2023-04-12T07:55:13.718Z,99466.35
2023-04-12T07:57:45.863Z,99467.86
2023-04-12T08:00:19.506Z,99468.24
2023-04-12T08:02:51.996Z,99470.35
2023-04-12T08:05:24.277Z,99474.68
2023-04-12T08:07:56.412Z,99476.48
2023-04-12T08:10:28.595Z,99471.45
2023-04-12T08:13:01.126Z,99471.54
2023-04-12T08:15:33.679Z,99472.61
2023-04-12T08:18:06.374Z,99476.15
2023-04-12T08:20:40.591Z,99475.80
2023-04-12T08:23:13.030Z,99476.99
2023-04-12T08:25:45.309Z,99475.11
2023-04-12T08:28:17.572Z,99475.86
2023-04-12T08:30:49.815Z,99478.16
2023-04-12T08:33:22.114Z,99475.36
2023-04-12T08:35:54.289Z,99471.60
2023-04-12T08:38:41.492Z,99473.36
2023-04-12T08:41:17.570Z,99468.31
2023-04-12T08:43:50.220Z,99467.90
2023-04-12T08:46:23.088Z,99464.23
2023-04-12T08:48:56.279Z,99466.64
2023-04-12T08:51:29.352Z,99464.86
2023-04-12T08:54:01.859Z,99460.90
2023-04-12T08:56:34.469Z,99460.63
2023-04-12T08:59:07.304Z,99463.95
2023-04-12T09:01:42.758Z,99468.52
2023-04-12T09:04:15.255Z,99463.13
2023-04-12T09:06:47.570Z,99461.81
2023-04-12T09:09:19.761Z,99458.33
2023-04-12T09:11:51.904Z,99459.23
2023-04-12T09:14:29.053Z,99458.32
2023-04-12T09:17:01.071Z,99457.75
2023-04-12T09:19:37.589Z,99452.38
2023-04-12T09:22:09.723Z,99451.10
2023-04-12T09:24:51.730Z,99450.87
2023-04-12T09:27:25.418Z,99455.92
2023-04-12T09:30:10.100Z,99455.96
2023-04-12T09:32:42.427Z,99458.32
2023-04-12T09:35:14.667Z,99455.46
2023-04-12T09:37:46.826Z,99457.83
2023-04-12T09:40:25.020Z,99456.11
2023-04-12T09:42:57.190Z,99457.71
2023-04-12T09:45:30.186Z,99457.40
2023-04-12T09:48:02.459Z,99459.58
2023-04-12T09:50:35.362Z,99455.95
2023-04-12T09:53:19.484Z,99461.85
2023-04-12T09:55:53.078Z,99456.88
2023-04-12T09:58:26.778Z,99450.61
2023-04-12T10:01:01.356Z,99449.49
2023-04-12T10:03:34.888Z,99448.66
2023-04-12T10:06:09.205Z,99449.45
2023-04-12T10:08:42.217Z,99448.67
2023-04-12T10:11:14.946Z,99446.52
2023-04-12T10:13:48.724Z,99443.84
2023-04-12T10:16:22.366Z,99443.39
2023-04-12T10:18:55.904Z,99437.89
2023-04-12T10:21:28.355Z,99440.66
2023-04-12T10:24:01.036Z,99438.02
2023-04-12T10:26:33.548Z,99435.90
2023-04-12T10:29:26.638Z,99429.91
2023-04-12T10:32:00.314Z,99429.88
2023-04-12T10:34:32.856Z,99432.75
2023-04-12T10:37:08.008Z,99429.46
2023-04-12T10:39:47.418Z,99432.70
2023-04-12T10:42:25.068Z,99437.98
2023-04-12T10:45:18.344Z,99436.44
2023-04-12T10:48:04.007Z,99433.58
2023-04-12T10:50:36.857Z,99435.10
2023-04-12T10:53:26.761Z,99434.07
2023-04-12T10:55:58.974Z,99438.64
2023-04-12T10:58:58.059Z,99443.69
2023-04-12T11:01:33.221Z,99437.39
2023-04-12T11:04:15.305Z,99431.83
2023-04-12T11:07:02.951Z,99431.13
2023-04-12T11:09:45.600Z,99431.88
2023-04-12T11:12:22.780Z,99424.14
2023-04-12T11:15:01.115Z,99425.31
2023-04-12T11:17:40.509Z,99423.30
2023-04-12T11:20:14.845Z,99423.23
2023-04-12T11:22:47.412Z,99419.57
2023-04-12T11:25:20.621Z,99419.02
2023-04-12T11:27:56.493Z,99420.33
2023-04-12T11:30:32.551Z,99420.25
2023-04-12T11:33:04.807Z,99422.62
2023-04-12T11:35:37.085Z,99422.73
2023-04-12T11:38:09.629Z,99417.25
2023-04-12T11:40:43.647Z,99418.05
2023-04-12T11:43:22.305Z,99418.34
2023-04-12T11:46:00.279Z,99407.08
2023-04-12T11:48:33.916Z,99407.73
2023-04-12T11:51:21.482Z,99407.04
2023-04-12T11:53:59.267Z,99406.08
2023-04-12T11:56:33.050Z,99407.04
2023-04-12T11:59:05.304Z,99406.77
2023-04-12T12:01:39.044Z,99406.66
2023-04-12T12:04:11.923Z,99401.14
2023-04-12T12:06:45.082Z,99405.64
2023-04-12T12:09:17.429Z,99395.91
2023-04-12T12:11:49.889Z,99388.38
2023-04-12T12:14:26.134Z,99384.93
2023-04-12T12:17:00.064Z,99379.98
2023-04-12T12:19:34.055Z,99376.62
2023-04-12T12:22:13.220Z,99374.77
2023-04-12T12:24:51.860Z,99369.11
2023-04-12T12:27:25.763Z,99365.44
2023-04-12T12:30:01.662Z,99354.91
2023-04-12T12:32:37.502Z,99351.64
2023-04-12T12:35:13.340Z,99351.04
2023-04-12T12:37:53.400Z,99348.79
2023-04-12T12:40:32.987Z,99348.41
2023-04-12T12:43:07.004Z,99344.39
2023-04-12T12:45:40.825Z,99343.53
2023-04-12T12:48:13.410Z,99342.09
2023-04-12T12:50:46.850Z,99338.51
2023-04-12T12:53:18.946Z,99336.77
2023-04-12T12:55:51.174Z,99333.84
2023-04-12T12:58:23.505Z,99331.82
2023-04-12T13:00:55.717Z,99329.33
2023-04-12T13:03:28.040Z,99324.73
2023-04-12T13:06:00.478Z,99326.11
2023-04-12T13:08:35.575Z,99322.88
2023-04-12T13:11:08.527Z,99327.98
2023-04-12T13:13:40.590Z,99323.38
2023-04-12T13:16:13.386Z,99317.48
2023-04-12T13:18:45.728Z,99318.35
2023-04-12T13:21:17.866Z,99315.15
2023-04-12T13:23:49.932Z,99314.42
2023-04-12T13:26:25.968Z,99313.50
2023-04-12T13:28:58.331Z,99309.35
2023-04-12T13:31:30.800Z,99310.67
2023-04-12T13:34:02.980Z,99310.10
2023-04-12T13:36:35.227Z,99308.54
2023-04-12T13:39:07.401Z,99303.50
2023-04-12T13:41:39.599Z,99301.85
2023-04-12T13:44:11.716Z,99300.29
2023-04-12T13:46:43.954Z,99299.58
2023-04-12T13:49:16.038Z,99292.11
2023-04-12T13:51:48.213Z,99293.56
2023-04-12T13:54:20.366Z,99291.52
2023-04-12T13:56:52.526Z,99288.91
2023-04-12T13:59:24.727Z,99285.11
2023-04-12T14:01:57.398Z,99282.77
2023-04-12T14:04:30.993Z,99285.52
2023-04-12T14:07:03.336Z,99286.18
2023-04-12T14:09:35.644Z,99286.59
2023-04-12T14:12:07.810Z,99286.73
2023-04-12T14:14:39.955Z,99286.08
2023-04-12T14:17:12.151Z,99282.96
2023-04-12T14:19:44.309Z,99281.23
2023-04-12T14:22:16.398Z,99282.80
2023-04-12T14:24:48.796Z,99285.86
2023-04-12T14:27:21.216Z,99286.11
2023-04-12T14:29:53.351Z,99287.59
2023-04-12T14:32:25.911Z,99289.93
2023-04-12T14:35:01.086Z,99288.73
2023-04-12T14:37:34.195Z,99291.41
2023-04-12T14:40:08.537Z,99293.05
2023-04-12T14:42:40.792Z,99289.11
2023-04-12T14:45:15.479Z,99287.08
2023-04-12T14:47:47.741Z,99290.06
2023-04-12T14:50:19.914Z,99290.61
2023-04-12T14:52:52.255Z,99293.34
2023-04-12T14:55:24.650Z,99289.73
2023-04-12T14:57:56.947Z,99288.00
2023-04-12T15:00:29.493Z,99293.97
2023-04-12T15:03:02.073Z,99293.84
2023-04-12T15:05:34.607Z,99296.31
2023-04-12T15:08:06.830Z,99295.83
2023-04-12T15:10:38.939Z,99300.52
2023-04-12T15:13:13.635Z,99297.29
2023-04-12T15:15:47.759Z,99297.88
2023-04-12T15:18:19.970Z,99298.81
2023-04-12T15:20:52.091Z,99298.91
2023-04-12T15:23:24.192Z,99295.64
2023-04-12T15:26:02.232Z,99296.55
2023-04-12T15:28:34.710Z,99299.44
2023-04-12T15:31:08.200Z,99301.02
2023-04-12T15:33:40.275Z,99296.95
2023-04-12T15:36:13.097Z,99298.48
2023-04-12T15:38:45.760Z,99301.73
2023-04-12T15:41:17.922Z,99296.91
2023-04-12T15:43:50.177Z,99296.66
2023-04-12T15:46:22.453Z,99292.46
2023-04-12T15:48:54.772Z,99294.48
2023-04-12T15:51:27.205Z,99293.85
2023-04-12T15:53:59.593Z,99298.83
2023-04-12T15:56:32.676Z,99296.84
2023-04-12T15:59:04.855Z,99294.67
2023-04-12T16:01:38.137Z,99291.02
2023-04-12T16:04:10.477Z,99287.10
2023-04-12T16:06:42.808Z,99285.61
2023-04-12T16:09:15.504Z,99281.75
2023-04-12T16:11:48.375Z,99281.46
2023-04-12T16:14:20.749Z,99285.98
2023-04-12T16:16:52.742Z,99277.83
2023-04-12T16:19:25.404Z,99280.86
2023-04-12T16:21:58.028Z,99283.16
2023-04-12T16:24:30.193Z,99281.74
2023-04-12T16:27:02.460Z,99282.94
2023-04-12T16:29:34.631Z,99278.88
2023-04-12T16:32:08.007Z,99278.38
2023-04-12T16:34:41.383Z,99278.84
2023-04-12T16:37:13.636Z,99281.30
2023-04-12T16:39:48.048Z,99281.47
2023-04-12T16:42:21.857Z,99279.94
2023-04-12T16:44:54.053Z,99277.95
2023-04-12T16:47:26.269Z,99277.16
2023-04-12T16:49:58.604Z,99278.55
2023-04-12T16:52:30.866Z,99278.19
2023-04-12T16:55:04.172Z,99278.56
2023-04-12T16:57:36.326Z,99278.98
2023-04-12T17:00:19.645Z,99276.84
2023-04-12T17:02:54.120Z,99281.20
2023-04-12T17:05:26.640Z,99279.71
2023-04-12T17:07:59.207Z,99279.91
2023-04-12T17:10:31.569Z,99280.65
2023-04-12T17:13:04.493Z,99276.71
2023-04-12T17:15:36.686Z,99275.17
2023-04-12T17:18:10.701Z,99276.63
2023-04-12T17:20:43.465Z,99279.72
2023-04-12T17:23:16.975Z,99281.42
2023-04-12T17:25:49.500Z,99279.88
2023-04-12T17:28:21.652Z,99278.29
2023-04-12T17:30:53.905Z,99274.80
2023-04-12T17:33:26.289Z,99274.09
2023-04-12T17:35:58.564Z,99275.63
2023-04-12T17:38:31.192Z,99274.17
2023-04-12T17:41:03.398Z,99269.73
2023-04-12T17:43:35.490Z,99267.79
2023-04-12T17:46:08.554Z,99267.55
2023-04-12T17:48:41.419Z,99272.15
2023-04-12T17:51:13.615Z,99272.11
2023-04-12T17:53:46.116Z,99272.29
2023-04-12T17:56:18.813Z,99273.61
2023-04-12T17:58:50.938Z,99273.95
2023-04-12T18:01:23.485Z,99274.14
2023-04-12T18:03:57.157Z,99276.83
2023-04-12T18:06:29.292Z,99277.83
2023-04-12T18:09:02.816Z,99279.70
2023-04-12T18:11:38.793Z,99277.30
2023-04-12T18:14:12.040Z,99277.67
2023-04-12T18:16:44.345Z,99278.46
2023-04-12T18:19:19.248Z,99282.11
2023-04-12T18:21:51.789Z,99281.70
2023-04-12T18:24:23.893Z,99281.24
2023-04-12T18:26:56.632Z,99282.29
2023-04-12T18:29:29.157Z,99285.08
2023-04-12T18:32:01.726Z,99283.37
2023-04-12T18:34:34.121Z,99280.98
2023-04-12T18:37:06.822Z,99282.52
2023-04-12T18:39:39.011Z,99283.40
2023-04-12T18:42:11.276Z,99277.90
2023-04-12T18:44:43.420Z,99276.45
2023-04-12T18:47:15.585Z,99276.83
2023-04-12T18:49:48.216Z,99272.16
2023-04-12T18:52:20.844Z,99269.70
2023-04-12T18:54:52.979Z,99268.67
2023-04-12T18:57:25.110Z,99267.34
2023-04-12T18:59:57.666Z,99262.20
2023-04-12T19:02:30.074Z,99262.77
2023-04-12T19:05:03.083Z,99255.13
2023-04-12T19:07:35.325Z,99249.48
2023-04-12T19:10:08.956Z,99242.40
2023-04-12T19:12:41.066Z,99240.54
2023-04-12T19:15:14.915Z,99242.04
2023-04-12T19:17:47.641Z,99239.17
2023-04-12T19:20:19.942Z,99242.65
2023-04-12T19:22:52.181Z,99241.65
2023-04-12T19:25:29.667Z,99243.67
2023-04-12T19:28:02.630Z,99246.27
2023-04-12T19:30:35.334Z,99249.95
2023-04-12T19:33:08.307Z,99250.31
2023-04-12T19:35:40.450Z,99253.17
2023-04-12T19:38:12.535Z,99250.98
2023-04-12T19:40:44.803Z,99253.17
2023-04-12T19:43:18.752Z,99250.56
2023-04-12T19:45:50.954Z,99252.91
2023-04-12T19:48:23.324Z,99255.40
2023-04-12T19:50:56.709Z,99253.61
2023-04-12T19:53:29.115Z,99255.48
2023-04-12T19:56:04.198Z,99254.70
2023-04-12T19:58:36.535Z,99258.75
2023-04-12T20:01:09.959Z,99260.31
2023-04-12T20:03:43.830Z,99259.71
2023-04-12T20:06:16.143Z,99257.83
2023-04-12T20:08:48.781Z,99257.20
2023-04-12T20:11:21.718Z,99257.16
2023-04-12T20:13:53.923Z,99256.16
2023-04-12T20:16:26.008Z,99252.26
2023-04-12T20:18:59.120Z,99248.48
2023-04-12T20:21:35.019Z,99249.36
2023-04-12T20:24:09.833Z,99248.59
2023-04-12T20:26:46.507Z,99246.23
2023-04-12T20:29:18.667Z,99249.77
2023-04-12T20:31:51.666Z,99245.94
2023-04-12T20:34:25.879Z,99247.17
2023-04-12T20:37:00.033Z,99244.72
2023-04-12T20:39:33.464Z,99248.84
2023-04-12T20:42:06.236Z,99245.77
2023-04-12T20:44:39.082Z,99243.13
2023-04-12T20:47:11.386Z,99241.45
2023-04-12T20:49:43.574Z,99243.61
2023-04-12T20:52:18.821Z,99241.29
2023-04-12T20:54:53.482Z,99240.26
2023-04-12T20:57:25.849Z,99239.27
2023-04-12T20:59:59.601Z,99239.87
2023-04-12T21:02:31.824Z,99237.92
2023-04-12T21:05:05.102Z,99243.45
2023-04-12T21:07:37.698Z,99246.39
2023-04-12T21:10:13.464Z,99245.75
2023-04-12T21:12:47.197Z,99244.37
2023-04-12T21:15:22.143Z,99243.27
2023-04-12T21:17:54.404Z,99246.06
2023-04-12T21:20:26.823Z,99242.04
2023-04-12T21:22:59.020Z,99236.63
2023-04-12T21:25:31.266Z,99236.80
2023-04-12T21:28:03.627Z,99237.34
2023-04-12T21:30:36.012Z,99241.35
2023-04-12T21:33:08.205Z,99243.29
2023-04-12T21:35:40.456Z,99238.38
2023-04-12T21:38:12.576Z,99239.46
2023-04-12T21:40:44.831Z,99238.08
2023-04-12T21:43:17.346Z,99234.98
2023-04-12T21:45:49.452Z,99229.70
2023-04-12T21:48:21.727Z,99227.66
2023-04-12T21:50:54.220Z,99228.40
2023-04-12T21:53:27.152Z,99229.83
2023-04-12T21:56:01.218Z,99233.29
2023-04-12T21:58:34.235Z,99231.20
2023-04-12T22:01:07.227Z,99233.81
2023-04-12T22:03:39.467Z,99229.13
2023-04-12T22:06:13.691Z,99232.86
2023-04-12T22:08:45.917Z,99231.46
2023-04-12T22:11:18.482Z,99229.17
2023-04-12T22:13:50.630Z,99222.41
2023-04-12T22:16:23.295Z,99225.45
2023-04-12T22:18:55.761Z,99222.09
2023-04-12T22:21:28.465Z,99221.52
2023-04-12T22:24:00.948Z,99224.56
2023-04-12T22:26:34.372Z,99221.95
2023-04-12T22:29:06.406Z,99221.88
2023-04-12T22:31:39.562Z,99219.87
2023-04-12T22:34:11.690Z,99216.12
2023-04-12T22:36:45.166Z,99215.84
2023-04-12T22:39:18.246Z,99216.02
2023-04-12T22:41:53.390Z,99212.14
2023-04-12T22:44:26.027Z,99211.39
2023-04-12T22:46:58.419Z,99204.65
2023-04-12T22:49:30.884Z,99203.45
2023-04-12T22:52:03.049Z,99195.59
2023-04-12T22:54:35.192Z,99196.89
2023-04-12T22:57:07.495Z,99191.17
2023-04-12T22:59:39.785Z,99187.46
2023-04-12T23:02:12.179Z,99178.45
2023-04-12T23:04:49.048Z,99170.96
2023-04-12T23:07:22.005Z,99162.83
2023-04-12T23:09:56.181Z,99156.86
2023-04-12T23:12:28.561Z,99151.15
2023-04-12T23:15:00.665Z,99150.11
2023-04-12T23:17:33.130Z,99145.11
2023-04-12T23:20:10.116Z,99146.31
2023-04-12T23:22:57.295Z,99147.27
2023-04-12T23:25:39.611Z,99147.14
2023-04-12T23:28:14.738Z,99151.70
2023-04-12T23:30:49.703Z,99147.17
2023-04-12T23:33:21.174Z,99148.05
2023-04-12T23:35:55.992Z,99144.36
2023-04-12T23:38:32.758Z,99137.85
2023-04-12T23:41:06.748Z,99137.83
2023-04-12T23:43:38.940Z,99135.81
2023-04-12T23:46:12.230Z,99129.56
2023-04-12T23:48:44.407Z,99121.25
2023-04-12T23:51:16.772Z,99118.27
2023-04-12T23:53:48.931Z,99119.82
2023-04-12T23:56:21.180Z,99118.39
2023-04-12T23:58:53.275Z,99119.13
